Promitheas — SYIJ — position and weather

sailwx.info

Track history (hours):
 
Tides and Currents Weather Stations Pressure Air Temp Water Temp Dewpoint Dewpoint Depression Visibility Wind Speed Wind Dir Waves Ship Positions

Promitheas

Last reported at 2017-Feb-23 01:32 UTC. Time now 2017-Feb-23 02:26 UTC.
Position N 59°59' E 027°04'.

Length 249 m; draft 15 m.

Type: Ship (hazmat cat A). MMSI: 240547000.

Date/timePositionNaut miles runAvg speedWind from/ knotsBaromVisibWave heightAir tempDewpointWater temp
2017-Feb-23 01:32N 59°59' E 027°04'1111.1
2017-Feb-23 00:31N 60°05' E 027°23'1211.2
2017-Feb-22 23:29N 60°11' E 027°43'8 8.1
2017-Feb-22 22:33N 60°11' E 027°58'7 6.9
2017-Feb-22 21:33N 60°09' E 028°11'8 8.5
2017-Feb-22 20:33N 60°04' E 028°25'7 6.7
2017-Feb-22 19:33N 60°00' E 028°36'6 6.2
2017-Feb-22 18:33N 59°54' E 028°32'1010.1
2017-Feb-22 17:33N 59°45' E 028°25'3 2.6
2017-Feb-22 16:29N 59°42' E 028°26'0 0.0
2017-Feb-22 15:29N 59°42' E 028°26'0 0.0
2017-Feb-22 14:32N 59°42' E 028°26'0 0.0
2017-Feb-22 13:32N 59°42' E 028°26'0 0.0
2017-Feb-22 12:32N 59°42' E 028°26'0 0.0
2017-Feb-22 11:32N 59°42' E 028°26'0 0.0
2017-Feb-22 10:32N 59°42' E 028°26'0 0.0
2017-Feb-22 09:32N 59°42' E 028°26'0 0.0
2017-Feb-22 08:32N 59°42' E 028°26'0 0.0
2017-Feb-22 07:20N 59°42' E 028°26'0 0.0
2017-Feb-22 06:23N 59°42' E 028°26'0 0.0
2017-Feb-22 05:26N 59°42' E 028°26'0 0.0
2017-Feb-22 04:26N 59°42' E 028°26'0 0.0
2017-Feb-22 03:26N 59°42' E 028°26'0 0.0
2017-Feb-22 02:29N 59°42' E 028°26'0 0.0
2017-Feb-22 01:29N 59°42' E 028°26'0 0.0
2017-Feb-22 00:29N 59°42' E 028°26'0 0.0
2017-Feb-21 23:32N 59°42' E 028°26'2 1.6
2017-Feb-21 22:33N 59°43' E 028°23'10 9.6
2017-Feb-21 21:33N 59°52' E 028°29'3 2.9
2017-Feb-21 20:33N 59°54' E 028°34'0 0.2
2017-Feb-21 19:33N 59°54' E 028°34'0 0.2
2017-Feb-21 18:33N 59°54' E 028°34'0 0.2
2017-Feb-21 17:33N 59°54' E 028°35'2 1.6
2017-Feb-21 16:33N 59°54' E 028°38'1 0.6
2017-Feb-21 15:33N 59°54' E 028°39'2 1.6
2017-Feb-21 14:33N 59°54' E 028°42'1 1.3
2017-Feb-21 13:33N 59°54' E 028°40'0 0.1
2017-Feb-21 12:33N 59°55' E 028°40'0 0.4
2017-Feb-21 11:33N 59°54' E 028°39'0 0.2
2017-Feb-21 10:33N 59°55' E 028°39'1 1.3
2017-Feb-21 09:33N 59°54' E 028°36'6 5.8
2017-Feb-21 08:33N 60°00' E 028°34'9 8.7
2017-Feb-21 07:33N 60°05' E 028°20'7 7.3
2017-Feb-21 06:33N 60°08' E 028°07'6 5.7
2017-Feb-21 05:33N 60°10' E 027°55'6 0.1
2017-Feb-19 04:15N 60°15' E 027°52'3 4.8
2017-Feb-19 03:33N 60°12' E 027°48'9 9.3
2017-Feb-19 02:33N 60°07' E 027°33'1010.0
2017-Feb-19 01:32N 60°02' E 027°15'1211.0
2017-Feb-19 00:27N 59°59' E 026°53'1011.4
2017-Feb-18 23:34N 59°59' E 026°32'1110.6
2017-Feb-18 22:32N 59°56' E 026°11'38611.4
2017-Feb-17 12:33N 55°49' E 016°53'1111.6
2017-Feb-17 11:33N 55°47' E 016°33'1211.7
2017-Feb-17 10:33N 55°44' E 016°13'1211.7
2017-Feb-17 09:33N 55°41' E 015°52'1211.6
2017-Feb-17 08:34N 55°39' E 015°32'1311.6
2017-Feb-17 07:26N 55°33' E 015°12'1112.7
2017-Feb-17 06:33N 55°28' E 014°54'1312.9
2017-Feb-17 05:33N 55°21' E 014°35'1313.0
2017-Feb-17 04:33N 55°11' E 014°21'1312.9
2017-Feb-17 03:34N 55°01' E 014°06'1313.1
2017-Feb-17 02:33N 54°56' E 013°44'1713.2
2017-Feb-17 01:17N 54°51' E 013°17'1313.3
2017-Feb-17 00:18N 54°47' E 012°55'1013.4
2017-Feb-16 23:34N 54°43' E 012°39'1312.9
2017-Feb-16 22:33N 54°36' E 012°21'9 8.5
2017-Feb-16 21:27N 54°28' E 012°13'1111.9
2017-Feb-16 20:32N 54°25' E 011°55'1613.0
2017-Feb-16 19:20N 54°30' E 011°29'1113.7
2017-Feb-16 18:34N 54°34' E 011°13'1414.3
2017-Feb-16 17:33N 54°41' E 010°51'1413.6
2017-Feb-16 16:33N 54°55' E 010°54'1312.7
2017-Feb-16 15:33N 55°07' E 011°02'1211.5
2017-Feb-16 14:33N 55°18' E 011°02'4611.3
2017-Feb-16 10:28N 56°04' E 011°05'1112.0
2017-Feb-16 09:33N 56°15' E 011°05'4110.3
2017-Feb-16 05:32N 56°49' E 011°50'1312.3
2017-Feb-16 04:30N 57°01' E 011°42'1212.0
2017-Feb-16 03:30N 57°12' E 011°35'1112.0
2017-Feb-16 02:33N 57°23' E 011°28'1212.1
2017-Feb-16 01:33N 57°33' E 011°14'1212.3
2017-Feb-16 00:33N 57°41' E 010°58'2211.1
2017-Feb-15 22:33N 57°47' E 010°18'1212.2
2017-Feb-15 21:33N 57°48' E 009°55'1313.1
2017-Feb-15 20:33N 57°47' E 009°30'1313.0
2017-Feb-15 19:33N 57°41' E 009°08'1512.4
2017-Feb-15 18:20N 57°35' E 008°42'1112.6
2017-Feb-15 17:28N 57°28' E 008°27'2612.9
2017-Feb-15 15:29N 57°16' E 007°44'1213.0
2017-Feb-15 14:31N 57°11' E 007°24'1313.2
2017-Feb-15 13:33N 57°00' E 007°11'1413.4
2017-Feb-15 12:28N 56°47' E 006°59'1313.5
2017-Feb-15 11:32N 56°36' E 006°49'1313.4
2017-Feb-15 10:33N 56°24' E 006°39'27812.6
2017-Feb-14 12:33N 52°06' E 003°40'1212.0
2017-Feb-14 11:33N 52°01' E 003°57'1010.4
2017-Feb-14 10:33N 51°56' E 004°12'1 0.8
2017-Feb-14 09:33N 51°55' E 004°13'0 0.0
2017-Feb-14 08:32N 51°55' E 004°13'0 0.0
2017-Feb-14 07:32N 51°55' E 004°13'0 0.0
2017-Feb-14 06:33N 51°55' E 004°13'0 0.0
2017-Feb-14 05:33N 51°55' E 004°13'0 0.0
2017-Feb-14 04:33N 51°55' E 004°13'0 0.0
2017-Feb-14 03:32N 51°55' E 004°13'0 0.0
2017-Feb-14 02:32N 51°55' E 004°13'0 0.0
2017-Feb-14 01:29N 51°55' E 004°13'0 0.0
2017-Feb-14 00:33N 51°55' E 004°13'0 0.0
2017-Feb-13 23:33N 51°55' E 004°13'0 0.0
2017-Feb-13 22:32N 51°55' E 004°13'0 0.0
2017-Feb-13 21:32N 51°55' E 004°13'0 0.0
2017-Feb-13 20:33N 51°55' E 004°13'0 0.0
2017-Feb-13 19:33N 51°55' E 004°13'0 0.0
2017-Feb-13 18:29N 51°55' E 004°13'0 0.0
2017-Feb-13 17:33N 51°55' E 004°13'0 0.0
2017-Feb-13 16:32N 51°55' E 004°13'0 0.0
2017-Feb-13 15:33N 51°55' E 004°13'0 0.0
2017-Feb-13 14:33N 51°55' E 004°13'0 0.0
2017-Feb-13 13:32N 51°55' E 004°13'0 0.0
2017-Feb-13 12:32N 51°55' E 004°13'0 0.0
2017-Feb-13 11:32N 51°55' E 004°13'0 0.0
2017-Feb-13 10:33N 51°55' E 004°13'0 0.0
2017-Feb-13 09:33N 51°55' E 004°13'0 0.0
2017-Feb-13 08:33N 51°55' E 004°13'0 0.0
2017-Feb-13 07:32N 51°55' E 004°13'0 0.0
2017-Feb-13 06:33N 51°55' E 004°13'0 0.0
2017-Feb-13 05:29N 51°55' E 004°13'0 0.0
2017-Feb-13 04:32N 51°55' E 004°13'0 0.0
2017-Feb-13 03:33N 51°55' E 004°13'0 0.0
2017-Feb-13 02:32N 51°55' E 004°13'0 0.0
2017-Feb-13 01:33N 51°55' E 004°13'  
Track history (hours):
 
Tides and Currents Weather Stations Pressure Air Temp Water Temp Dewpoint Dewpoint Depression Visibility Wind Speed Wind Dir Waves Ship Positions

Promitheas

Last reported at 2017-Feb-23 01:32 UTC. Time now 2017-Feb-23 02:26 UTC.
Position N 59°59' E 027°04'.

Length 249 m; draft 15 m.

Type: Ship (hazmat cat A). MMSI: 240547000.

Date/timePositionNaut miles runAvg speedWind from/ knotsBaromVisibWave heightAir tempDewpointWater temp
2017-Feb-23 01:32N 59°59' E 027°04'1111.1
2017-Feb-23 00:31N 60°05' E 027°23'1211.2
2017-Feb-22 23:29N 60°11' E 027°43'8 8.1
2017-Feb-22 22:33N 60°11' E 027°58'7 6.9
2017-Feb-22 21:33N 60°09' E 028°11'8 8.5
2017-Feb-22 20:33N 60°04' E 028°25'7 6.7
2017-Feb-22 19:33N 60°00' E 028°36'6 6.2
2017-Feb-22 18:33N 59°54' E 028°32'1010.1
2017-Feb-22 17:33N 59°45' E 028°25'3 2.6
2017-Feb-22 16:29N 59°42' E 028°26'0 0.0
2017-Feb-22 15:29N 59°42' E 028°26'0 0.0
2017-Feb-22 14:32N 59°42' E 028°26'0 0.0
2017-Feb-22 13:32N 59°42' E 028°26'0 0.0
2017-Feb-22 12:32N 59°42' E 028°26'0 0.0
2017-Feb-22 11:32N 59°42' E 028°26'0 0.0
2017-Feb-22 10:32N 59°42' E 028°26'0 0.0
2017-Feb-22 09:32N 59°42' E 028°26'0 0.0
2017-Feb-22 08:32N 59°42' E 028°26'0 0.0
2017-Feb-22 07:20N 59°42' E 028°26'0 0.0
2017-Feb-22 06:23N 59°42' E 028°26'0 0.0
2017-Feb-22 05:26N 59°42' E 028°26'0 0.0
2017-Feb-22 04:26N 59°42' E 028°26'0 0.0
2017-Feb-22 03:26N 59°42' E 028°26'0 0.0
2017-Feb-22 02:29N 59°42' E 028°26'0 0.0
2017-Feb-22 01:29N 59°42' E 028°26'0 0.0
2017-Feb-22 00:29N 59°42' E 028°26'0 0.0
2017-Feb-21 23:32N 59°42' E 028°26'2 1.6
2017-Feb-21 22:33N 59°43' E 028°23'10 9.6
2017-Feb-21 21:33N 59°52' E 028°29'3 2.9
2017-Feb-21 20:33N 59°54' E 028°34'0 0.2
2017-Feb-21 19:33N 59°54' E 028°34'0 0.2
2017-Feb-21 18:33N 59°54' E 028°34'0 0.2
2017-Feb-21 17:33N 59°54' E 028°35'2 1.6
2017-Feb-21 16:33N 59°54' E 028°38'1 0.6
2017-Feb-21 15:33N 59°54' E 028°39'2 1.6
2017-Feb-21 14:33N 59°54' E 028°42'1 1.3
2017-Feb-21 13:33N 59°54' E 028°40'0 0.1
2017-Feb-21 12:33N 59°55' E 028°40'0 0.4
2017-Feb-21 11:33N 59°54' E 028°39'0 0.2
2017-Feb-21 10:33N 59°55' E 028°39'1 1.3
2017-Feb-21 09:33N 59°54' E 028°36'6 5.8
2017-Feb-21 08:33N 60°00' E 028°34'9 8.7
2017-Feb-21 07:33N 60°05' E 028°20'7 7.3
2017-Feb-21 06:33N 60°08' E 028°07'6 5.7
2017-Feb-21 05:33N 60°10' E 027°55'6 0.1
2017-Feb-19 04:15N 60°15' E 027°52'3 4.8
2017-Feb-19 03:33N 60°12' E 027°48'9 9.3
2017-Feb-19 02:33N 60°07' E 027°33'1010.0
2017-Feb-19 01:32N 60°02' E 027°15'1211.0
2017-Feb-19 00:27N 59°59' E 026°53'1011.4
2017-Feb-18 23:34N 59°59' E 026°32'1110.6
2017-Feb-18 22:32N 59°56' E 026°11'38611.4
2017-Feb-17 12:33N 55°49' E 016°53'1111.6
2017-Feb-17 11:33N 55°47' E 016°33'1211.7
2017-Feb-17 10:33N 55°44' E 016°13'1211.7
2017-Feb-17 09:33N 55°41' E 015°52'1211.6
2017-Feb-17 08:34N 55°39' E 015°32'1311.6
2017-Feb-17 07:26N 55°33' E 015°12'1112.7
2017-Feb-17 06:33N 55°28' E 014°54'1312.9
2017-Feb-17 05:33N 55°21' E 014°35'1313.0
2017-Feb-17 04:33N 55°11' E 014°21'1312.9
2017-Feb-17 03:34N 55°01' E 014°06'1313.1
2017-Feb-17 02:33N 54°56' E 013°44'1713.2
2017-Feb-17 01:17N 54°51' E 013°17'1313.3
2017-Feb-17 00:18N 54°47' E 012°55'1013.4
2017-Feb-16 23:34N 54°43' E 012°39'1312.9
2017-Feb-16 22:33N 54°36' E 012°21'9 8.5
2017-Feb-16 21:27N 54°28' E 012°13'1111.9
2017-Feb-16 20:32N 54°25' E 011°55'1613.0
2017-Feb-16 19:20N 54°30' E 011°29'1113.7
2017-Feb-16 18:34N 54°34' E 011°13'1414.3
2017-Feb-16 17:33N 54°41' E 010°51'1413.6
2017-Feb-16 16:33N 54°55' E 010°54'1312.7
2017-Feb-16 15:33N 55°07' E 011°02'1211.5
2017-Feb-16 14:33N 55°18' E 011°02'4611.3
2017-Feb-16 10:28N 56°04' E 011°05'1112.0
2017-Feb-16 09:33N 56°15' E 011°05'4110.3
2017-Feb-16 05:32N 56°49' E 011°50'1312.3
2017-Feb-16 04:30N 57°01' E 011°42'1212.0
2017-Feb-16 03:30N 57°12' E 011°35'1112.0
2017-Feb-16 02:33N 57°23' E 011°28'1212.1
2017-Feb-16 01:33N 57°33' E 011°14'1212.3
2017-Feb-16 00:33N 57°41' E 010°58'2211.1
2017-Feb-15 22:33N 57°47' E 010°18'1212.2
2017-Feb-15 21:33N 57°48' E 009°55'1313.1
2017-Feb-15 20:33N 57°47' E 009°30'1313.0
2017-Feb-15 19:33N 57°41' E 009°08'1512.4
2017-Feb-15 18:20N 57°35' E 008°42'1112.6
2017-Feb-15 17:28N 57°28' E 008°27'2612.9
2017-Feb-15 15:29N 57°16' E 007°44'1213.0
2017-Feb-15 14:31N 57°11' E 007°24'1313.2
2017-Feb-15 13:33N 57°00' E 007°11'1413.4
2017-Feb-15 12:28N 56°47' E 006°59'1313.5
2017-Feb-15 11:32N 56°36' E 006°49'1313.4
2017-Feb-15 10:33N 56°24' E 006°39'27812.6
2017-Feb-14 12:33N 52°06' E 003°40'1212.0
2017-Feb-14 11:33N 52°01' E 003°57'1010.4
2017-Feb-14 10:33N 51°56' E 004°12'1 0.8
2017-Feb-14 09:33N 51°55' E 004°13'0 0.0
2017-Feb-14 08:32N 51°55' E 004°13'0 0.0
2017-Feb-14 07:32N 51°55' E 004°13'0 0.0
2017-Feb-14 06:33N 51°55' E 004°13'0 0.0
2017-Feb-14 05:33N 51°55' E 004°13'0 0.0
2017-Feb-14 04:33N 51°55' E 004°13'0 0.0
2017-Feb-14 03:32N 51°55' E 004°13'0 0.0
2017-Feb-14 02:32N 51°55' E 004°13'0 0.0
2017-Feb-14 01:29N 51°55' E 004°13'0 0.0
2017-Feb-14 00:33N 51°55' E 004°13'0 0.0
2017-Feb-13 23:33N 51°55' E 004°13'0 0.0
2017-Feb-13 22:32N 51°55' E 004°13'0 0.0
2017-Feb-13 21:32N 51°55' E 004°13'0 0.0
2017-Feb-13 20:33N 51°55' E 004°13'0 0.0
2017-Feb-13 19:33N 51°55' E 004°13'0 0.0
2017-Feb-13 18:29N 51°55' E 004°13'0 0.0
2017-Feb-13 17:33N 51°55' E 004°13'0 0.0
2017-Feb-13 16:32N 51°55' E 004°13'0 0.0
2017-Feb-13 15:33N 51°55' E 004°13'0 0.0
2017-Feb-13 14:33N 51°55' E 004°13'0 0.0
2017-Feb-13 13:32N 51°55' E 004°13'0 0.0
2017-Feb-13 12:32N 51°55' E 004°13'0 0.0
2017-Feb-13 11:32N 51°55' E 004°13'0 0.0
2017-Feb-13 10:33N 51°55' E 004°13'0 0.0
2017-Feb-13 09:33N 51°55' E 004°13'0 0.0
2017-Feb-13 08:33N 51°55' E 004°13'0 0.0
2017-Feb-13 07:32N 51°55' E 004°13'0 0.0
2017-Feb-13 06:33N 51°55' E 004°13'0 0.0
2017-Feb-13 05:29N 51°55' E 004°13'0 0.0
2017-Feb-13 04:32N 51°55' E 004°13'0 0.0
2017-Feb-13 03:33N 51°55' E 004°13'0 0.0
2017-Feb-13 02:32N 51°55' E 004°13'0 0.0
2017-Feb-13 01:33N 51°55' E 004°13'  

Dump ship's entire track history